Candelaria, Argentina
Current Conditions -  °F | °C
As of 8:00 AM on Friday 24 Oct 2014 (Local Time) from SARP Reporting Station
Clear Clear  
Wind Chill: 73°   Ceiling: Unl
Heat Index: 73°   Visibility: 6mi
Dew Point: 63°   Wind: 3mph
Humidity: 69%   Direction: 110°ESE
Pressure: 29.94"   Gusts: NA
Location:  27.47°S, 55.73°W
Report Text: SARP 241100Z 11003KT CAVOK 23/17 Q1014
Loading
Personal Weather Stations






























Interactive Weather Map
Tropical Storm Tracking
New forecast layout! Learn more

10-Day Weather Forecast

Advertisements
Track Severe Weather on mobile